createdAt,value
2023-03-28T00:00:54.707Z,3.10
2023-03-28T00:03:27.514Z,3.10
2023-03-28T00:06:01.445Z,3.10
2023-03-28T00:08:32.754Z,3.10
2023-03-28T00:11:09.596Z,3.10
2023-03-28T00:13:43.249Z,3.10
2023-03-28T00:16:33.976Z,3.10
2023-03-28T00:19:10.631Z,3.10
2023-03-28T00:21:47.195Z,3.00
2023-03-28T00:24:24.056Z,3.00
2023-03-28T00:26:55.579Z,3.00
2023-03-28T00:29:30.322Z,3.00
2023-03-28T00:32:03.591Z,3.00
2023-03-28T00:34:34.503Z,2.90
2023-03-28T00:37:05.598Z,2.90
2023-03-28T00:39:36.670Z,2.90
2023-03-28T00:42:20.384Z,2.90
2023-03-28T00:44:55.755Z,2.90
2023-03-28T00:47:40.981Z,2.90
2023-03-28T00:50:51.338Z,2.90
2023-03-28T00:53:28.602Z,2.90
2023-03-28T00:56:05.093Z,2.90
2023-03-28T00:58:42.412Z,2.80
2023-03-28T01:01:18.513Z,2.80
2023-03-28T01:04:20.706Z,3.10
2023-03-28T01:06:57.123Z,2.80
2023-03-28T01:09:28.798Z,2.80
2023-03-28T01:12:02.008Z,3.20
2023-03-28T01:14:33.995Z,2.70
2023-03-28T01:17:10.986Z,2.70
2023-03-28T01:20:01.562Z,2.70
2023-03-28T01:23:07.792Z,3.00
2023-03-28T01:26:13.701Z,2.70
2023-03-28T01:29:23.898Z,2.70
2023-03-28T01:32:32.088Z,2.70
2023-03-28T01:35:36.858Z,2.60
2023-03-28T01:38:16.037Z,2.60
2023-03-28T01:40:53.557Z,2.60
2023-03-28T01:43:38.730Z,2.60
2023-03-28T01:46:18.920Z,2.60
2023-03-28T01:49:11.389Z,2.60
2023-03-28T01:51:57.215Z,2.60
2023-03-28T01:54:35.600Z,2.50
2023-03-28T01:57:13.899Z,2.50
2023-03-28T01:59:48.051Z,2.50
2023-03-28T02:02:30.242Z,2.50
2023-03-28T02:05:04.411Z,2.50
2023-03-28T02:07:36.778Z,2.50
2023-03-28T02:10:12.776Z,2.50
2023-03-28T02:12:48.815Z,2.10
2023-03-28T02:15:22.407Z,2.50
2023-03-28T02:18:00.691Z,2.20
2023-03-28T02:20:35.348Z,2.50
2023-03-28T02:23:11.722Z,2.40
2023-03-28T02:25:45.189Z,2.40
2023-03-28T02:28:17.428Z,2.40
2023-03-28T02:30:48.798Z,2.40
2023-03-28T02:33:41.997Z,2.40
2023-03-28T02:36:33.636Z,2.40
2023-03-28T02:39:20.992Z,2.40
2023-03-28T02:42:09.931Z,2.40
2023-03-28T02:44:55.899Z,2.40
2023-03-28T02:47:36.863Z,2.40
2023-03-28T02:50:21.396Z,2.40
2023-03-28T02:52:58.733Z,2.30
2023-03-28T02:56:07.879Z,2.30
2023-03-28T02:58:48.848Z,2.30
2023-03-28T03:01:19.833Z,2.30
2023-03-28T03:03:51.088Z,2.20
2023-03-28T03:06:22.110Z,2.20
2023-03-28T03:08:53.061Z,2.40
2023-03-28T03:11:25.177Z,2.20
2023-03-28T03:14:00.420Z,2.20
2023-03-28T03:16:31.806Z,2.20
2023-03-28T03:19:02.734Z,2.20
2023-03-28T03:21:35.316Z,2.20
2023-03-28T03:24:06.714Z,2.30
2023-03-28T03:26:43.324Z,2.20
2023-03-28T03:29:17.810Z,2.20
2023-03-28T03:31:49.061Z,2.20
2023-03-28T03:34:27.084Z,2.20
2023-03-28T03:37:04.522Z,2.20
2023-03-28T03:39:39.130Z,2.20
2023-03-28T03:42:10.013Z,2.20
2023-03-28T03:44:43.497Z,2.20
2023-03-28T03:47:15.144Z,2.10
2023-03-28T03:49:46.298Z,2.10
2023-03-28T03:52:17.237Z,2.10
2023-03-28T03:54:48.071Z,2.10
2023-03-28T03:57:20.562Z,2.00
2023-03-28T03:59:54.172Z,2.00
2023-03-28T04:02:25.006Z,2.00
2023-03-28T04:05:00.161Z,2.00
2023-03-28T04:07:31.123Z,2.00
2023-03-28T04:10:02.402Z,2.10
2023-03-28T04:12:33.218Z,2.00
2023-03-28T04:15:07.478Z,2.00
2023-03-28T04:17:41.485Z,2.10
2023-03-28T04:20:16.233Z,2.00
2023-03-28T04:22:48.446Z,2.10
2023-03-28T04:25:19.511Z,2.00
2023-03-28T04:28:04.037Z,2.00
2023-03-28T04:30:53.461Z,2.00
2023-03-28T04:33:26.643Z,2.00
2023-03-28T04:36:00.794Z,2.00
2023-03-28T04:38:36.489Z,2.60
2023-03-28T04:41:08.457Z,2.00
2023-03-28T04:43:39.418Z,2.00
2023-03-28T04:46:14.581Z,2.00
2023-03-28T04:48:48.840Z,2.00
2023-03-28T04:51:39.708Z,2.00
2023-03-28T04:54:10.589Z,2.00
2023-03-28T04:56:41.750Z,2.00
2023-03-28T04:59:14.815Z,2.20
2023-03-28T05:01:54.370Z,2.00
2023-03-28T05:04:26.792Z,2.00
2023-03-28T05:06:57.836Z,2.00
2023-03-28T05:09:31.944Z,2.00
2023-03-28T05:12:08.476Z,2.00
2023-03-28T05:14:43.085Z,2.00
2023-03-28T05:17:18.433Z,2.00
2023-03-28T05:19:49.392Z,2.00
2023-03-28T05:22:23.589Z,2.00
2023-03-28T05:24:54.437Z,1.90
2023-03-28T05:27:25.682Z,2.00
2023-03-28T05:29:59.435Z,1.90
2023-03-28T05:32:33.126Z,2.00
2023-03-28T05:35:04.487Z,2.00
2023-03-28T05:37:37.529Z,2.00
2023-03-28T05:40:11.801Z,2.00
2023-03-28T05:42:43.045Z,2.10
2023-03-28T05:45:14.801Z,2.10
2023-03-28T05:47:57.237Z,2.10
2023-03-28T05:50:29.190Z,2.10
2023-03-28T05:53:03.418Z,2.10
2023-03-28T05:55:35.641Z,2.10
2023-03-28T05:58:07.886Z,2.10
2023-03-28T06:00:48.878Z,2.10
2023-03-28T06:03:22.572Z,2.20
2023-03-28T06:06:13.701Z,1.90
2023-03-28T06:08:44.750Z,2.30
2023-03-28T06:11:17.011Z,2.30
2023-03-28T06:13:49.453Z,2.40
2023-03-28T06:16:30.078Z,2.40
2023-03-28T06:19:17.203Z,2.40
2023-03-28T06:21:49.321Z,2.50
2023-03-28T06:24:22.919Z,2.60
2023-03-28T06:26:54.103Z,2.60
2023-03-28T06:29:24.922Z,2.90
2023-03-28T06:31:55.846Z,3.20
2023-03-28T06:34:29.311Z,3.40
2023-03-28T06:37:01.892Z,3.60
2023-03-28T06:39:32.940Z,3.70
2023-03-28T06:42:03.833Z,3.80
2023-03-28T06:44:34.708Z,4.00
2023-03-28T06:47:05.963Z,4.10
2023-03-28T06:49:39.462Z,4.00
2023-03-28T06:52:19.768Z,4.20
2023-03-28T06:54:51.440Z,4.10
2023-03-28T06:57:22.539Z,4.20
2023-03-28T07:00:16.932Z,4.20
2023-03-28T07:02:47.934Z,4.30
2023-03-28T07:05:33.812Z,4.20
2023-03-28T07:08:05.118Z,4.20
2023-03-28T07:10:39.142Z,4.80
2023-03-28T07:13:11.173Z,6.20
2023-03-28T07:15:42.240Z,7.90
2023-03-28T07:18:13.160Z,8.30
2023-03-28T07:20:52.003Z,8.90
2023-03-28T07:23:38.343Z,9.20
2023-03-28T07:26:11.194Z,9.50
2023-03-28T07:28:42.221Z,9.50
2023-03-28T07:31:13.969Z,9.30
2023-03-28T07:33:51.973Z,9.20
2023-03-28T07:36:25.576Z,9.00
2023-03-28T07:38:56.801Z,8.80
2023-03-28T07:41:27.854Z,8.70
2023-03-28T07:43:58.957Z,8.50
2023-03-28T07:46:33.429Z,8.20
2023-03-28T07:49:07.025Z,7.80
2023-03-28T07:51:45.614Z,7.50
2023-03-28T07:54:18.060Z,7.40
2023-03-28T07:56:49.608Z,7.10
2023-03-28T07:59:21.168Z,6.90
2023-03-28T08:01:52.265Z,6.90
2023-03-28T08:04:28.247Z,6.90
2023-03-28T08:07:02.469Z,7.00
2023-03-28T08:09:33.931Z,7.10
2023-03-28T08:12:07.692Z,7.20
2023-03-28T08:14:38.598Z,7.20
2023-03-28T08:17:52.979Z,7.20
2023-03-28T08:20:44.009Z,7.40
2023-03-28T08:23:22.617Z,7.30
2023-03-28T08:26:04.935Z,7.30
2023-03-28T08:28:37.398Z,7.30
2023-03-28T08:31:14.416Z,7.40
2023-03-28T08:33:48.834Z,7.40
2023-03-28T08:36:20.114Z,7.70
2023-03-28T08:39:00.648Z,7.30
2023-03-28T08:41:54.100Z,7.50
2023-03-28T08:44:47.261Z,7.60
2023-03-28T08:47:27.062Z,7.60
2023-03-28T08:50:02.646Z,7.70
2023-03-28T08:52:35.772Z,7.90
2023-03-28T08:55:25.388Z,8.00
2023-03-28T08:58:00.955Z,8.00
2023-03-28T09:00:34.477Z,8.30
2023-03-28T09:03:12.468Z,8.00
2023-03-28T09:05:50.052Z,8.10
2023-03-28T09:08:52.572Z,8.30
2023-03-28T09:11:36.368Z,8.20
2023-03-28T09:14:24.654Z,8.00
2023-03-28T09:17:07.317Z,7.80
2023-03-28T09:20:00.440Z,8.10
2023-03-28T09:22:40.724Z,7.80
2023-03-28T09:25:37.786Z,7.60
2023-03-28T09:28:21.703Z,7.70
2023-03-28T09:30:56.977Z,7.90
2023-03-28T09:33:31.512Z,8.00
2023-03-28T09:36:04.363Z,8.10
2023-03-28T09:38:39.363Z,8.20
2023-03-28T09:41:21.190Z,8.20
2023-03-28T09:44:00.101Z,8.30
2023-03-28T09:46:35.860Z,8.40
2023-03-28T09:49:07.366Z,8.40
2023-03-28T09:51:38.643Z,8.50
2023-03-28T09:54:13.888Z,8.60
2023-03-28T09:56:47.239Z,8.60
2023-03-28T09:59:29.124Z,8.60
2023-03-28T10:02:04.528Z,8.50
2023-03-28T10:04:38.470Z,8.50
2023-03-28T10:07:34.683Z,8.50
2023-03-28T10:10:22.570Z,8.30
2023-03-28T10:13:09.467Z,8.10
2023-03-28T10:15:50.378Z,8.20
2023-03-28T10:18:24.303Z,8.30
2023-03-28T10:20:56.410Z,8.00
2023-03-28T10:23:28.275Z,7.90
2023-03-28T10:26:05.258Z,7.90
2023-03-28T10:28:38.556Z,8.10
2023-03-28T10:31:29.523Z,8.40
2023-03-28T10:34:02.815Z,8.30
2023-03-28T10:36:37.635Z,8.20
2023-03-28T10:39:25.008Z,8.20
2023-03-28T10:41:56.456Z,8.20
2023-03-28T10:44:31.391Z,8.30
2023-03-28T10:47:07.780Z,8.50
2023-03-28T10:49:47.627Z,8.70
2023-03-28T10:52:30.126Z,8.70
2023-03-28T10:55:18.439Z,8.80
2023-03-28T10:58:14.095Z,9.00
2023-03-28T11:00:49.064Z,9.10
2023-03-28T11:03:59.161Z,9.10
2023-03-28T11:06:37.965Z,9.10
2023-03-28T11:09:19.141Z,9.30
2023-03-28T11:12:01.864Z,9.40
2023-03-28T11:15:00.009Z,9.50
2023-03-28T11:17:44.492Z,9.60
2023-03-28T11:20:40.460Z,9.80
2023-03-28T11:23:25.512Z,10.00
2023-03-28T11:29:36.584Z,10.10
2023-03-28T11:32:23.196Z,10.00
2023-03-28T11:35:04.510Z,10.00
2023-03-28T11:37:43.137Z,9.90
2023-03-28T11:40:24.437Z,9.80
2023-03-28T11:43:00.331Z,10.10
2023-03-28T11:45:50.332Z,10.00
2023-03-28T11:48:29.102Z,10.10
2023-03-28T11:51:07.347Z,10.20
2023-03-28T11:53:47.541Z,10.30
2023-03-28T11:56:42.795Z,10.30
2023-03-28T11:59:18.615Z,10.30
2023-03-28T12:01:55.345Z,10.30
2023-03-28T12:04:30.848Z,10.40
2023-03-28T12:07:14.362Z,10.50
2023-03-28T12:10:00.415Z,10.50
2023-03-28T12:12:38.980Z,10.50
2023-03-28T12:15:16.701Z,10.50
2023-03-28T12:17:51.025Z,10.50
2023-03-28T12:20:43.553Z,10.40
2023-03-28T12:23:40.735Z,10.20
2023-03-28T12:26:24.571Z,10.00
2023-03-28T12:28:58.318Z,10.20
2023-03-28T12:31:34.518Z,10.50
2023-03-28T12:34:12.822Z,10.70
2023-03-28T12:36:51.213Z,10.70
2023-03-28T12:39:35.520Z,10.70
2023-03-28T12:42:13.214Z,10.60
2023-03-28T12:45:41.432Z,10.60
2023-03-28T12:48:23.620Z,10.60
2023-03-28T12:50:59.380Z,10.20
2023-03-28T12:53:35.849Z,10.50
2023-03-28T12:56:09.017Z,11.00
2023-03-28T12:58:43.260Z,10.30
2023-03-28T13:01:43.382Z,10.20
2023-03-28T13:04:26.953Z,10.30
2023-03-28T13:07:18.271Z,10.40
2023-03-28T13:10:02.463Z,10.70
2023-03-28T13:12:50.595Z,10.60
2023-03-28T13:15:34.316Z,10.70
2023-03-28T13:18:29.303Z,10.60
2023-03-28T13:21:04.986Z,10.70
2023-03-28T13:23:51.501Z,10.70
2023-03-28T13:26:24.888Z,10.70
2023-03-28T13:29:02.590Z,10.60
2023-03-28T13:31:36.437Z,10.80
2023-03-28T13:34:08.051Z,10.80
2023-03-28T13:36:39.699Z,10.70
2023-03-28T13:39:28.745Z,10.60
2023-03-28T13:42:03.912Z,10.70
2023-03-28T13:44:42.017Z,10.90
2023-03-28T13:47:38.552Z,10.80
2023-03-28T13:50:24.768Z,10.80
2023-03-28T13:52:56.078Z,10.90
2023-03-28T13:55:28.491Z,10.90
2023-03-28T13:58:04.491Z,10.80
2023-03-28T14:00:35.468Z,10.60
2023-03-28T14:03:16.480Z,10.50
2023-03-28T14:05:48.848Z,10.50
2023-03-28T14:08:25.778Z,10.40
2023-03-28T14:10:57.082Z,10.40
2023-03-28T14:13:31.259Z,10.50
2023-03-28T14:16:02.316Z,10.60
2023-03-28T14:18:39.831Z,10.70
2023-03-28T14:21:11.130Z,10.70
2023-03-28T14:23:44.222Z,10.70
2023-03-28T14:26:21.476Z,10.50
2023-03-28T14:28:54.588Z,10.40
2023-03-28T14:31:34.435Z,10.10
2023-03-28T14:34:19.046Z,10.50
2023-03-28T14:37:06.846Z,10.70
2023-03-28T14:39:41.828Z,11.20
2023-03-28T14:42:17.946Z,10.90
2023-03-28T14:44:52.908Z,10.90
2023-03-28T14:47:29.625Z,10.90
2023-03-28T14:50:04.774Z,10.90
2023-03-28T14:52:41.095Z,10.80
2023-03-28T14:55:18.958Z,10.90
2023-03-28T14:57:51.857Z,11.00
2023-03-28T15:00:26.553Z,11.00
2023-03-28T15:02:58.479Z,11.10
2023-03-28T15:05:32.225Z,11.00
2023-03-28T15:08:04.991Z,11.10
2023-03-28T15:10:36.484Z,11.20
2023-03-28T15:13:12.354Z,11.20
2023-03-28T15:15:47.153Z,11.20
2023-03-28T15:18:25.548Z,11.00
2023-03-28T15:21:03.766Z,10.90
2023-03-28T15:23:37.933Z,11.00
2023-03-28T15:26:13.047Z,11.10
2023-03-28T15:28:43.958Z,11.10
2023-03-28T15:31:15.432Z,11.20
2023-03-28T15:33:49.650Z,11.20
2023-03-28T15:36:26.814Z,11.40
2023-03-28T15:39:03.448Z,11.30
2023-03-28T15:41:46.135Z,11.30
2023-03-28T15:44:29.930Z,11.10
2023-03-28T15:47:07.678Z,10.90
2023-03-28T15:49:39.959Z,11.10
2023-03-28T15:52:20.262Z,10.80
2023-03-28T15:54:57.089Z,10.80
2023-03-28T15:57:31.032Z,10.80
2023-03-28T16:00:02.640Z,10.70
2023-03-28T16:02:37.402Z,10.60
2023-03-28T16:05:32.033Z,10.60
2023-03-28T16:08:05.793Z,10.60
2023-03-28T16:10:37.773Z,10.50
2023-03-28T16:13:14.464Z,10.50
2023-03-28T16:15:45.773Z,10.40
2023-03-28T16:18:17.050Z,10.30
2023-03-28T16:20:48.194Z,10.30
2023-03-28T16:23:23.999Z,10.20
2023-03-28T16:25:56.194Z,10.20
2023-03-28T16:28:27.565Z,10.10
2023-03-28T16:30:58.536Z,10.40
2023-03-28T16:33:29.719Z,10.00
2023-03-28T16:36:01.275Z,10.00
2023-03-28T16:38:38.607Z,10.00
2023-03-28T16:41:10.388Z,10.00
2023-03-28T16:43:41.378Z,10.00
2023-03-28T16:46:13.841Z,10.00
2023-03-28T16:48:45.272Z,10.00
2023-03-28T16:51:16.241Z,10.10
2023-03-28T16:53:49.814Z,10.10
2023-03-28T16:56:21.009Z,10.00
2023-03-28T16:58:52.096Z,10.00
2023-03-28T17:01:23.333Z,9.90
2023-03-28T17:03:55.784Z,9.90
2023-03-28T17:06:27.777Z,9.90
2023-03-28T17:09:04.741Z,9.90
2023-03-28T17:11:40.279Z,9.80
2023-03-28T17:14:11.754Z,9.70
2023-03-28T17:16:45.235Z,9.70
2023-03-28T17:19:23.189Z,9.70
2023-03-28T17:21:54.266Z,9.70
2023-03-28T17:24:28.127Z,9.70
2023-03-28T17:26:59.273Z,9.60
2023-03-28T17:29:30.310Z,9.60
2023-03-28T17:32:02.981Z,9.60
2023-03-28T17:34:35.969Z,9.60
2023-03-28T17:37:07.061Z,9.60
2023-03-28T17:39:42.033Z,9.60
2023-03-28T17:42:12.965Z,9.60
2023-03-28T17:44:43.896Z,9.60
2023-03-28T17:47:14.996Z,9.60
2023-03-28T17:49:46.198Z,9.60
2023-03-28T17:52:17.832Z,9.50
2023-03-28T17:54:51.699Z,9.50
2023-03-28T17:57:22.700Z,9.30
2023-03-28T17:59:57.036Z,9.40
2023-03-28T18:02:28.617Z,9.40
2023-03-28T18:04:59.537Z,9.40
2023-03-28T18:07:35.046Z,9.40
2023-03-28T18:10:09.675Z,9.40
2023-03-28T18:12:40.681Z,9.40
2023-03-28T18:15:13.150Z,9.30
2023-03-28T18:17:45.204Z,9.30
2023-03-28T18:20:16.210Z,9.30
2023-03-28T18:22:47.167Z,9.30
2023-03-28T18:25:21.132Z,9.30
2023-03-28T18:27:52.656Z,9.30
2023-03-28T18:30:23.725Z,9.30
2023-03-28T18:32:55.677Z,9.20
2023-03-28T18:35:27.186Z,9.20
2023-03-28T18:37:59.667Z,9.20
2023-03-28T18:40:34.792Z,9.10
2023-03-28T18:43:06.302Z,9.10
2023-03-28T18:45:37.856Z,9.10
2023-03-28T18:48:09.674Z,9.10
2023-03-28T18:50:42.315Z,9.00
2023-03-28T18:53:13.487Z,9.00
2023-03-28T18:55:47.177Z,9.00
2023-03-28T18:58:18.789Z,9.00
2023-03-28T19:01:00.558Z,8.70
2023-03-28T19:03:33.487Z,9.00
2023-03-28T19:06:05.509Z,9.30
2023-03-28T19:08:37.160Z,8.90
2023-03-28T19:11:13.742Z,8.90
2023-03-28T19:13:45.513Z,9.30
2023-03-28T19:16:19.378Z,8.80
2023-03-28T19:18:50.978Z,8.80
2023-03-28T19:21:23.789Z,8.80
2023-03-28T19:23:55.108Z,8.80
2023-03-28T19:26:28.888Z,8.80
2023-03-28T19:28:59.924Z,8.90
2023-03-28T19:31:31.440Z,8.80
2023-03-28T19:34:03.269Z,8.80
2023-03-28T19:36:34.307Z,8.80
2023-03-28T19:39:05.319Z,8.80
2023-03-28T19:41:42.585Z,8.80
2023-03-28T19:44:14.219Z,8.90
2023-03-28T19:46:47.288Z,8.80
2023-03-28T19:49:19.336Z,8.30
2023-03-28T19:51:50.268Z,8.70
2023-03-28T19:54:21.759Z,8.50
2023-03-28T19:56:55.601Z,8.40
2023-03-28T19:59:26.620Z,8.40
2023-03-28T20:02:00.101Z,8.30
2023-03-28T20:04:31.348Z,8.30
2023-03-28T20:07:02.873Z,8.30
2023-03-28T20:09:36.596Z,8.30
2023-03-28T20:12:10.489Z,8.20
2023-03-28T20:14:42.749Z,8.10
2023-03-28T20:17:14.506Z,8.10
2023-03-28T20:19:45.530Z,8.00
2023-03-28T20:22:18.396Z,8.10
2023-03-28T20:24:50.752Z,8.10
2023-03-28T20:27:25.414Z,8.10
2023-03-28T20:29:56.644Z,7.90
2023-03-28T20:32:37.209Z,7.90
2023-03-28T20:35:09.456Z,7.90
2023-03-28T20:37:40.801Z,7.80
2023-03-28T20:40:13.308Z,7.80
2023-03-28T20:42:46.902Z,7.70
2023-03-28T20:45:22.369Z,7.60
2023-03-28T20:47:58.970Z,7.70
2023-03-28T20:50:36.340Z,7.70
2023-03-28T20:53:10.240Z,7.70
2023-03-28T20:55:41.203Z,7.70
2023-03-28T20:58:14.839Z,7.60
2023-03-28T21:00:47.737Z,7.60
2023-03-28T21:03:18.743Z,7.60
2023-03-28T21:05:50.306Z,7.60
2023-03-28T21:08:21.674Z,7.60
2023-03-28T21:10:54.872Z,7.60
2023-03-28T21:13:28.388Z,7.40
2023-03-28T21:15:59.564Z,7.40
2023-03-28T21:18:30.542Z,7.40
2023-03-28T21:21:01.856Z,7.20
2023-03-28T21:23:37.344Z,7.10
2023-03-28T21:26:09.774Z,7.10
2023-03-28T21:28:43.639Z,7.10
2023-03-28T21:31:17.138Z,7.00
2023-03-28T21:33:48.032Z,7.00
2023-03-28T21:36:20.552Z,7.10
2023-03-28T21:38:51.916Z,7.00
2023-03-28T21:41:22.955Z,7.00
2023-03-28T21:43:56.971Z,7.00
2023-03-28T21:46:28.253Z,6.90
2023-03-28T21:48:59.204Z,6.90
2023-03-28T21:51:30.243Z,6.90
2023-03-28T21:54:01.461Z,6.90
2023-03-28T21:56:32.746Z,6.90
2023-03-28T21:59:06.874Z,6.90
2023-03-28T22:01:37.943Z,6.80
2023-03-28T22:04:08.935Z,6.70
2023-03-28T22:06:39.901Z,6.70
2023-03-28T22:09:10.936Z,7.10
2023-03-28T22:11:42.451Z,6.70
2023-03-28T22:14:18.605Z,6.70
2023-03-28T22:16:54.854Z,6.70
2023-03-28T22:19:30.891Z,6.70
2023-03-28T22:22:02.552Z,6.50
2023-03-28T22:24:34.372Z,6.50
2023-03-28T22:27:08.371Z,6.60
2023-03-28T22:29:41.930Z,6.60
2023-03-28T22:32:13.073Z,6.60
2023-03-28T22:34:45.298Z,6.50
2023-03-28T22:37:16.894Z,6.40
2023-03-28T22:39:49.229Z,6.50
2023-03-28T22:42:20.245Z,6.40
2023-03-28T22:44:56.938Z,6.40
2023-03-28T22:47:30.222Z,6.50
2023-03-28T22:50:01.287Z,6.40
2023-03-28T22:52:32.865Z,6.40
2023-03-28T22:55:04.721Z,6.30
2023-03-28T22:57:38.834Z,6.40
2023-03-28T23:00:15.346Z,6.40
2023-03-28T23:02:46.813Z,6.40
2023-03-28T23:05:17.950Z,6.30
2023-03-28T23:07:53.332Z,6.30
2023-03-28T23:10:24.471Z,6.30
2023-03-28T23:12:55.288Z,6.30
2023-03-28T23:15:29.087Z,6.70
2023-03-28T23:18:00.453Z,6.30
2023-03-28T23:20:31.462Z,6.40
2023-03-28T23:23:02.696Z,6.30
2023-03-28T23:25:39.167Z,6.40
2023-03-28T23:28:10.156Z,6.40
2023-03-28T23:30:44.247Z,6.40
2023-03-28T23:33:18.528Z,6.50
2023-03-28T23:35:49.955Z,6.50
2023-03-28T23:38:20.790Z,6.50
2023-03-28T23:40:51.725Z,6.80
2023-03-28T23:43:24.662Z,6.40
2023-03-28T23:45:58.441Z,6.40
2023-03-28T23:48:29.500Z,6.40
2023-03-28T23:51:02.225Z,6.40
2023-03-28T23:53:33.677Z,6.30
2023-03-28T23:56:05.668Z,6.30
2023-03-28T23:58:37.151Z,6.20
